Time;durP1;ratioP1;P1;durP2;ratioP2;P2;SDS_P1;SDS_P2;PMS_P1;PMS_P2;Temp;Humidity;BMP_temperature;BMP_pressure;BME280_temperature;BME280_humidity;BME280_pressure;Samples;Min_cycle;Max_cycle;Signal;HPM_P1;HPM_P2
2021/06/03 00:00:50;;;;;;;9.43;8.53;;;;;23.50;100587.00;;;;2047969;28;20238;-55
2021/06/03 00:01:52;;;;;;;8.43;7.72;;;;;23.50;100582.00;;;;2046363;29;20590;-53
2021/06/03 00:02:52;;;;;;;8.65;7.85;;;;;23.40;100587.00;;;;2047226;29;20279;-54
2021/06/03 00:03:52;;;;;;;8.13;7.47;;;;;23.40;100583.00;;;;2054032;28;20690;-54
2021/06/03 00:04:53;;;;;;;8.77;7.87;;;;;23.40;100582.00;;;;2056041;28;20223;-54
2021/06/03 00:05:56;;;;;;;8.60;7.80;;;;;23.40;100588.00;;;;2055958;28;20226;-53
2021/06/03 00:06:56;;;;;;;8.75;7.85;;;;;23.40;100566.00;;;;2055433;28;20219;-53
2021/06/03 00:07:57;;;;;;;8.80;8.00;;;;;23.40;100577.00;;;;2055485;28;20227;-53
2021/06/03 00:08:57;;;;;;;9.10;8.20;;;;;23.40;100588.00;;;;2052134;28;20223;-54
2021/06/03 00:09:57;;;;;;;8.30;7.60;;;;;23.40;100580.00;;;;2054956;28;20222;-55
2021/06/03 00:10:59;;;;;;;8.47;7.67;;;;;23.40;100583.00;;;;2051322;28;20223;-51
2021/06/03 00:11:59;;;;;;;8.30;7.60;;;;;23.40;100582.00;;;;2047927;28;20215;-55
2021/06/03 00:13:00;;;;;;;8.20;7.50;;;;;23.40;100581.00;;;;2049570;28;20690;-54
2021/06/03 00:14:00;;;;;;;8.60;7.80;;;;;23.40;100577.00;;;;2049546;28;20224;-53
2021/06/03 00:15:01;;;;;;;8.50;7.60;;;;;23.40;100578.00;;;;2046696;28;20280;-52
2021/06/03 00:16:04;;;;;;;9.20;8.30;;;;;23.40;100579.00;;;;2050489;28;20720;-53
2021/06/03 00:17:04;;;;;;;7.85;7.25;;;;;23.40;100578.00;;;;2055754;28;20218;-54
2021/06/03 00:18:05;;;;;;;8.20;7.50;;;;;23.40;100578.00;;;;2055455;28;20590;-55
2021/06/03 00:19:07;;;;;;;8.70;7.90;;;;;23.40;100579.00;;;;2047714;28;20227;-55
2021/06/03 00:20:12;;;;;;;8.90;8.10;;;;;23.40;100579.00;;;;2053603;28;20223;-55
2021/06/03 00:21:13;;;;;;;7.85;7.15;;;;;23.40;100577.00;;;;2038970;29;20829;-54
2021/06/03 00:22:13;;;;;;;7.57;6.97;;;;;23.40;100572.00;;;;2037067;29;20213;-55
2021/06/03 00:23:13;;;;;;;8.20;7.50;;;;;23.40;100578.00;;;;2048026;28;20231;-55
2021/06/03 00:24:14;;;;;;;8.97;8.17;;;;;23.40;100604.00;;;;2051641;28;20215;-55
2021/06/03 00:25:14;;;;;;;8.60;7.80;;;;;23.40;100583.00;;;;2056062;28;20230;-54
2021/06/03 00:26:15;;;;;;;8.43;7.73;;;;;23.40;100575.00;;;;2051997;28;20589;-54
2021/06/03 00:27:15;;;;;;;7.93;7.13;;;;;23.40;100571.00;;;;2052244;28;20220;-55
2021/06/03 00:28:16;;;;;;;8.53;7.73;;;;;23.40;100574.00;;;;2056142;28;20227;-54
2021/06/03 00:29:16;;;;;;;7.57;6.87;;;;;23.40;100579.00;;;;2052000;28;20234;-55
2021/06/03 00:30:17;;;;;;;7.97;7.27;;;;;23.40;100576.00;;;;2041911;29;20244;-53
2021/06/03 00:31:17;;;;;;;7.73;7.03;;;;;23.40;100574.00;;;;2039019;29;20225;-54
2021/06/03 00:32:17;;;;;;;8.40;7.60;;;;;23.40;100574.00;;;;2048050;28;20247;-55
2021/06/03 00:33:18;;;;;;;7.80;7.10;;;;;23.40;100573.00;;;;2054012;28;20287;-55
2021/06/03 00:34:18;;;;;;;8.13;7.30;;;;;23.40;100568.00;;;;2049023;28;20589;-55
2021/06/03 00:35:19;;;;;;;7.87;7.10;;;;;23.40;100571.00;;;;2047073;29;20246;-53
2021/06/03 00:36:20;;;;;;;7.72;7.03;;;;;23.40;100574.00;;;;2038233;29;20283;-53
2021/06/03 00:37:20;;;;;;;8.20;7.50;;;;;23.40;100566.00;;;;2051453;28;20693;-54
2021/06/03 00:38:21;;;;;;;8.67;7.87;;;;;23.40;100573.00;;;;2055802;28;20227;-53
2021/06/03 00:39:21;;;;;;;8.63;7.50;;;;;23.40;100565.00;;;;2052265;28;20228;-54
2021/06/03 00:40:21;;;;;;;8.57;7.77;;;;;23.40;100572.00;;;;2052174;28;20238;-54
2021/06/03 00:41:22;;;;;;;7.53;6.73;;;;;23.40;100577.00;;;;2050436;28;20224;-54
2021/06/03 00:42:24;;;;;;;7.60;7.00;;;;;23.40;100577.00;;;;2051685;28;20310;-53
2021/06/03 00:43:24;;;;;;;7.80;7.10;;;;;23.40;100575.00;;;;2051893;28;20245;-55
2021/06/03 00:44:25;;;;;;;8.27;7.53;;;;;23.40;100579.00;;;;2039316;29;20217;-52
2021/06/03 00:45:28;;;;;;;7.70;7.00;;;;;23.40;100586.00;;;;2042918;29;20228;-54
2021/06/03 00:46:29;;;;;;;7.93;7.22;;;;;23.40;100580.00;;;;2055807;28;20274;-54
2021/06/03 00:47:29;;;;;;;7.60;6.90;;;;;23.40;100582.00;;;;2056033;28;20224;-55
2021/06/03 00:48:29;;;;;;;7.83;7.13;;;;;23.40;100579.00;;;;2051244;28;20810;-53
2021/06/03 00:49:30;;;;;;;8.17;7.47;;;;;23.40;100578.00;;;;2048205;28;20220;-51
2021/06/03 00:50:47;;;;;;;8.13;7.40;;;;;23.40;100580.00;;;;2047816;28;21293;-52
2021/06/03 00:51:47;;;;;;;8.30;7.50;;;;;23.40;100582.00;;;;2047364;28;20299;-53
2021/06/03 00:52:48;;;;;;;8.70;7.90;;;;;23.40;100575.00;;;;2048069;28;20221;-55
2021/06/03 00:53:48;;;;;;;7.50;6.90;;;;;23.40;100582.00;;;;2043362;28;20756;-55
2021/06/03 00:54:48;;;;;;;8.27;7.57;;;;;23.40;100581.00;;;;2025343;29;20223;-56
2021/06/03 00:55:52;;;;;;;7.50;6.90;;;;;23.40;100582.00;;;;2037340;29;20225;-55
2021/06/03 00:56:52;;;;;;;8.35;7.65;;;;;23.40;100576.00;;;;2047998;28;20299;-54
2021/06/03 00:57:53;;;;;;;7.60;6.90;;;;;23.40;100574.00;;;;2047773;28;20335;-54
2021/06/03 00:58:53;;;;;;;7.40;6.70;;;;;23.40;100580.00;;;;2042880;29;20231;-55
2021/06/03 00:59:53;;;;;;;7.70;7.00;;;;;23.40;100589.00;;;;2027932;29;20226;-54
2021/06/03 01:00:54;;;;;;;7.83;7.13;;;;;23.40;100581.00;;;;2039097;29;20305;-54
2021/06/03 01:01:54;;;;;;;7.60;7.00;;;;;23.40;100586.00;;;;2047059;28;20216;-55
2021/06/03 01:02:55;;;;;;;7.70;7.00;;;;;23.40;100583.00;;;;2047905;28;20217;-55
2021/06/03 01:03:55;;;;;;;7.67;7.07;;;;;23.40;100588.00;;;;2051726;28;20299;-55
2021/06/03 01:04:55;;;;;;;7.60;6.90;;;;;23.40;100583.00;;;;2047860;28;20309;-53
2021/06/03 01:05:59;;;;;;;8.20;7.27;;;;;23.40;100586.00;;;;2053660;28;20689;-54
2021/06/03 01:06:59;;;;;;;8.32;7.57;;;;;23.40;100581.00;;;;2055592;28;20211;-52
2021/06/03 01:08:01;;;;;;;7.27;6.63;;;;;23.40;100593.00;;;;2048295;28;20236;-54
2021/06/03 01:09:01;;;;;;;8.43;7.72;;;;;23.40;100592.00;;;;2039378;29;20287;-52
2021/06/03 01:10:05;;;;;;;7.90;7.20;;;;;23.40;100583.00;;;;2045211;29;20649;-53
2021/06/03 01:11:42;;;;;;;7.88;7.20;;;;;23.40;100594.00;;;;2046032;29;20216;-56
2021/06/03 01:12:46;;;;;;;7.70;7.10;;;;;23.40;100598.00;;;;2043491;29;20271;-55
2021/06/03 01:14:01;;;;;;;8.10;7.30;;;;;23.40;100591.00;;;;2032885;29;20213;-55
2021/06/03 01:15:04;;;;;;;7.95;7.20;;;;;23.40;100582.00;;;;2046701;28;20219;-54
2021/06/03 01:16:04;;;;;;;7.47;6.78;;;;;23.40;100593.00;;;;2055781;28;20212;-54
2021/06/03 01:17:05;;;;;;;8.23;6.33;;;;;23.40;100590.00;;;;2055864;28;20693;-54
2021/06/03 01:18:05;;;;;;;7.43;6.73;;;;;23.40;100594.00;;;;2054737;28;20216;-58
2021/06/03 01:19:14;;;;;;;7.20;6.60;;;;;23.40;100590.00;;;;2037799;29;20729;-57
2021/06/03 01:20:15;;;;;;;7.45;6.75;;;;;23.40;100597.00;;;;2025643;29;20219;-53
2021/06/03 01:21:18;;;;;;;7.20;6.60;;;;;23.40;100587.00;;;;2027311;29;20215;-55
2021/06/03 01:22:43;;;;;;;7.82;7.13;;;;;23.30;100593.00;;;;2035883;29;20210;-55
2021/06/03 01:23:53;;;;;;;7.00;6.40;;;;;23.30;100596.00;;;;2038198;29;20559;-55
2021/06/03 01:24:55;;;;;;;7.72;7.03;;;;;23.40;100578.00;;;;2030966;29;20237;-55
2021/06/03 01:25:55;;;;;;;7.47;6.70;;;;;23.40;100593.00;;;;2028149;29;20699;-54
2021/06/03 01:26:59;;;;;;;7.27;6.67;;;;;23.30;100589.00;;;;2035536;29;20715;-53
2021/06/03 01:28:00;;;;;;;7.47;6.88;;;;;23.40;100595.00;;;;2038612;29;21101;-52
2021/06/03 01:29:01;;;;;;;6.88;6.28;;;;;23.40;100591.00;;;;2038568;29;20658;-53
2021/06/03 01:30:11;;;;;;;7.60;7.00;;;;;23.30;100587.00;;;;2041333;29;20220;-55
2021/06/03 01:31:12;;;;;;;6.85;6.30;;;;;23.40;100590.00;;;;2048432;28;20459;-54
2021/06/03 01:32:12;;;;;;;7.13;6.53;;;;;23.40;100580.00;;;;2039055;29;20300;-53
2021/06/03 01:33:14;;;;;;;7.40;6.60;;;;;23.30;100581.00;;;;2042122;29;20222;-52
2021/06/03 01:34:15;;;;;;;7.53;6.82;;;;;23.40;100593.00;;;;2039289;29;20213;-55
2021/06/03 01:35:23;;;;;;;7.40;6.70;;;;;23.40;100587.00;;;;2036192;29;20230;-55
2021/06/03 01:36:24;;;;;;;7.88;7.20;;;;;23.30;100587.00;;;;2034433;29;20469;-55
2021/06/03 01:37:24;;;;;;;7.60;6.97;;;;;23.30;100588.00;;;;2038340;29;20303;-55
2021/06/03 01:38:27;;;;;;;7.77;7.07;;;;;23.40;100583.00;;;;2023224;29;20318;-53
2021/06/03 01:39:28;;;;;;;7.60;6.90;;;;;23.30;100587.00;;;;2034600;29;20248;-55
2021/06/03 01:40:28;;;;;;;6.70;6.20;;;;;23.30;100597.00;;;;2039084;28;20239;-54
2021/06/03 01:41:28;;;;;;;6.93;6.33;;;;;23.30;100580.00;;;;2031690;29;20230;-53
2021/06/03 01:42:29;;;;;;;6.97;6.37;;;;;23.30;100590.00;;;;2036021;29;20225;-53
2021/06/03 01:43:30;;;;;;;7.47;6.87;;;;;23.30;100582.00;;;;2040666;29;20228;-54
2021/06/03 01:44:32;;;;;;;7.38;6.78;;;;;23.30;100582.00;;;;2040726;28;20444;-53
2021/06/03 01:45:32;;;;;;;7.18;6.57;;;;;23.30;100589.00;;;;2046611;29;20220;-55
2021/06/03 01:46:33;;;;;;;7.40;6.80;;;;;23.30;100565.00;;;;2043609;29;20220;-53
2021/06/03 01:47:33;;;;;;;7.00;6.40;;;;;23.30;100580.00;;;;2023214;29;20759;-54
2021/06/03 01:48:34;;;;;;;7.57;6.97;;;;;23.30;100574.00;;;;2030969;29;20221;-54
2021/06/03 01:49:34;;;;;;;7.50;6.90;;;;;23.30;100579.00;;;;2042763;29;20244;-55
2021/06/03 01:50:34;;;;;;;7.30;6.70;;;;;23.30;100582.00;;;;2034094;29;20217;-54
2021/06/03 01:51:35;;;;;;;6.60;6.10;;;;;23.30;100576.00;;;;2043375;29;20216;-53
2021/06/03 01:52:35;;;;;;;6.63;6.10;;;;;23.30;100575.00;;;;2056405;28;20247;-53
2021/06/03 01:53:35;;;;;;;7.43;6.73;;;;;23.10;100572.00;;;;2047960;28;20220;-55
2021/06/03 01:54:36;;;;;;;7.30;6.60;;;;;23.30;100564.00;;;;2037020;29;20248;-54
2021/06/03 01:55:36;;;;;;;6.50;6.00;;;;;23.30;100588.00;;;;2046283;29;20368;-55
2021/06/03 01:56:37;;;;;;;6.20;5.70;;;;;23.30;100567.00;;;;2036955;29;20237;-55
2021/06/03 01:57:37;;;;;;;6.80;6.17;;;;;23.30;100579.00;;;;2032303;29;20696;-54
2021/06/03 01:58:38;;;;;;;7.67;6.97;;;;;23.30;100567.00;;;;2038508;29;20229;-55
2021/06/03 01:59:38;;;;;;;7.00;6.40;;;;;23.30;100576.00;;;;2035375;29;20221;-55
2021/06/03 02:00:39;;;;;;;6.63;6.13;;;;;23.30;100576.00;;;;2046926;29;21155;-54
2021/06/03 02:01:39;;;;;;;7.20;6.60;;;;;23.30;100573.00;;;;2055018;28;20672;-52
2021/06/03 02:02:39;;;;;;;6.93;6.37;;;;;23.30;100578.00;;;;2055562;28;20224;-53
2021/06/03 02:03:40;;;;;;;6.90;6.30;;;;;23.30;100578.00;;;;2051668;28;20225;-53
2021/06/03 02:04:40;;;;;;;7.10;6.50;;;;;23.30;100579.00;;;;2049033;28;20224;-53
2021/06/03 02:05:40;;;;;;;7.83;7.13;;;;;23.30;100576.00;;;;2041039;29;20220;-52
2021/06/03 02:06:41;;;;;;;6.50;6.00;;;;;23.30;100580.00;;;;2024919;29;20222;-53
2021/06/03 02:07:41;;;;;;;6.50;5.90;;;;;23.30;100573.00;;;;2037803;29;20217;-54
2021/06/03 02:08:42;;;;;;;6.87;6.27;;;;;23.30;100571.00;;;;2051598;28;20240;-54
2021/06/03 02:09:42;;;;;;;7.63;6.93;;;;;23.30;100575.00;;;;2050870;28;20220;-56
2021/06/03 02:10:43;;;;;;;6.90;6.30;;;;;23.30;100570.00;;;;2049983;28;20211;-58
2021/06/03 02:11:45;;;;;;;7.20;6.60;;;;;23.30;100563.00;;;;2050842;28;20217;-54
2021/06/03 02:13:15;;;;;;;7.07;6.47;;;;;23.30;100577.00;;;;2039186;29;20242;-54
2021/06/03 02:14:18;;;;;;;7.35;6.75;;;;;23.30;100576.00;;;;2034184;29;20247;-53
2021/06/03 02:15:18;;;;;;;6.55;6.05;;;;;23.30;100574.00;;;;2029414;29;20300;-54
2021/06/03 02:16:45;;;;;;;6.47;5.97;;;;;23.30;100580.00;;;;2029684;29;20206;-53
2021/06/03 02:17:47;;;;;;;7.57;6.88;;;;;23.30;100577.00;;;;2036343;29;20224;-54
2021/06/03 02:18:50;;;;;;;7.07;6.38;;;;;23.30;100580.00;;;;2049549;28;20223;-55
2021/06/03 02:20:02;;;;;;;6.68;6.07;;;;;23.30;100577.00;;;;2042987;29;20303;-53
2021/06/03 02:21:03;;;;;;;7.00;6.40;;;;;23.30;100578.00;;;;2033481;29;20214;-54
2021/06/03 02:22:03;;;;;;;6.80;6.20;;;;;23.30;100579.00;;;;2038194;29;20225;-55
2021/06/03 02:23:04;;;;;;;7.00;6.43;;;;;23.30;100580.00;;;;2040210;29;20320;-53
2021/06/03 02:24:05;;;;;;;6.33;5.77;;;;;23.30;100592.00;;;;2054059;28;21852;-54
2021/06/03 02:25:06;;;;;;;6.75;6.15;;;;;23.30;100589.00;;;;2051588;28;20561;-55
2021/06/03 02:26:06;;;;;;;6.70;6.20;;;;;23.30;100589.00;;;;2051111;28;20230;-54
2021/06/03 02:27:07;;;;;;;6.83;6.33;;;;;23.30;100593.00;;;;2043150;29;20479;-54
2021/06/03 02:28:07;;;;;;;6.80;6.20;;;;;23.30;100576.00;;;;2034973;29;20234;-54
2021/06/03 02:29:08;;;;;;;6.27;5.70;;;;;23.30;100587.00;;;;2036481;29;20276;-53
2021/06/03 02:30:09;;;;;;;6.60;6.10;;;;;23.30;100594.00;;;;2029989;29;20237;-54
2021/06/03 02:31:09;;;;;;;6.40;5.83;;;;;23.30;100594.00;;;;2029805;29;20301;-55
2021/06/03 02:32:11;;;;;;;6.03;5.53;;;;;23.30;100593.00;;;;2040707;29;20296;-52
2021/06/03 02:33:11;;;;;;;6.90;6.30;;;;;23.30;100597.00;;;;2034869;29;20508;-53
2021/06/03 02:34:11;;;;;;;6.43;5.93;;;;;23.30;100583.00;;;;2046232;28;20252;-52
2021/06/03 02:35:12;;;;;;;6.80;6.30;;;;;23.30;100598.00;;;;2038170;29;20291;-54
2021/06/03 02:36:12;;;;;;;6.57;6.07;;;;;23.30;100595.00;;;;2033551;29;20217;-53
2021/06/03 02:37:14;;;;;;;6.63;6.10;;;;;23.30;100597.00;;;;2050859;28;20451;-54
2021/06/03 02:38:16;;;;;;;6.10;5.60;;;;;22.80;100602.00;;;;2049607;28;20717;-53
2021/06/03 02:39:16;;;;;;;6.88;6.28;;;;;23.30;100607.00;;;;2051560;28;20893;-54
2021/06/03 02:40:28;;;;;;;5.70;5.27;;;;;23.30;100604.00;;;;2053510;28;20270;-54
2021/06/03 02:41:28;;;;;;;6.50;6.00;;;;;23.30;100598.00;;;;2050539;28;20500;-55
2021/06/03 02:42:28;;;;;;;6.80;6.20;;;;;23.30;100550.00;;;;2049279;28;20216;-53
2021/06/03 02:43:29;;;;;;;6.80;6.20;;;;;23.30;100608.00;;;;2050977;28;20852;-52
2021/06/03 02:44:32;;;;;;;6.20;5.70;;;;;23.30;100600.00;;;;2041918;28;20619;-55
2021/06/03 02:45:34;;;;;;;6.25;5.75;;;;;23.30;100603.00;;;;2046170;28;20701;-52
2021/06/03 02:46:34;;;;;;;6.97;6.35;;;;;23.30;100602.00;;;;2049184;28;20212;-53
2021/06/03 02:47:35;;;;;;;6.73;6.20;;;;;23.30;100607.00;;;;2047264;28;20260;-54
2021/06/03 02:48:36;;;;;;;6.53;5.97;;;;;23.30;100608.00;;;;2045643;28;20227;-55
2021/06/03 02:49:36;;;;;;;6.70;6.10;;;;;23.30;100608.00;;;;2047225;28;20708;-54
2021/06/03 02:50:36;;;;;;;6.33;5.83;;;;;23.30;100602.00;;;;2047181;28;20307;-53
2021/06/03 02:51:37;;;;;;;6.60;6.00;;;;;23.30;100609.00;;;;2050171;28;20262;-54
2021/06/03 02:52:38;;;;;;;6.20;5.70;;;;;23.30;100610.00;;;;2051047;28;20315;-54
2021/06/03 02:53:38;;;;;;;7.03;6.35;;;;;23.30;100606.00;;;;2046225;28;20850;-55
2021/06/03 02:54:39;;;;;;;6.43;5.93;;;;;23.30;100607.00;;;;2046177;29;20383;-52
2021/06/03 02:55:39;;;;;;;6.20;5.70;;;;;23.30;100611.00;;;;2054508;28;20216;-54
2021/06/03 02:56:39;;;;;;;6.03;5.53;;;;;23.30;100607.00;;;;2052196;28;20244;-53
2021/06/03 02:57:40;;;;;;;6.20;5.70;;;;;23.30;100618.00;;;;2048873;28;20262;-52
2021/06/03 02:58:40;;;;;;;6.67;6.07;;;;;23.30;100613.00;;;;2035230;29;20227;-53
2021/06/03 02:59:41;;;;;;;6.20;5.70;;;;;23.30;100615.00;;;;2048099;28;20244;-53
2021/06/03 03:00:41;;;;;;;6.00;5.50;;;;;23.30;100611.00;;;;2054165;28;20223;-54
2021/06/03 03:01:42;;;;;;;6.30;5.80;;;;;23.30;100615.00;;;;2053606;28;20370;-55
2021/06/03 03:02:42;;;;;;;6.20;5.70;;;;;23.30;100613.00;;;;2050733;28;20298;-54
2021/06/03 03:03:42;;;;;;;6.80;6.17;;;;;23.30;100615.00;;;;2046757;28;20594;-55
2021/06/03 03:04:43;;;;;;;5.93;5.43;;;;;23.30;100618.00;;;;2045963;28;20216;-55
2021/06/03 03:05:43;;;;;;;5.60;5.20;;;;;23.30;100619.00;;;;2050604;28;20241;-52
2021/06/03 03:06:43;;;;;;;5.90;5.40;;;;;23.30;100621.00;;;;2054295;28;20221;-53
2021/06/03 03:07:44;;;;;;;6.53;5.93;;;;;23.30;100618.00;;;;2054577;28;20220;-54
2021/06/03 03:08:44;;;;;;;5.87;5.40;;;;;23.30;100624.00;;;;2053501;28;20211;-55
2021/06/03 03:09:45;;;;;;;6.03;5.53;;;;;23.30;100621.00;;;;2052733;28;20235;-55
2021/06/03 03:10:47;;;;;;;6.10;5.60;;;;;23.30;100626.00;;;;2046943;28;20251;-53
2021/06/03 03:11:48;;;;;;;6.60;6.00;;;;;23.30;100625.00;;;;2051296;28;20319;-55
2021/06/03 03:12:48;;;;;;;5.93;5.50;;;;;23.30;100627.00;;;;2047701;28;20602;-55
2021/06/03 03:13:48;;;;;;;6.80;6.20;;;;;23.30;100626.00;;;;2047012;28;20221;-54
2021/06/03 03:14:49;;;;;;;6.30;5.70;;;;;23.30;100637.00;;;;2046914;28;20236;-54
2021/06/03 03:15:49;;;;;;;6.57;6.07;;;;;23.30;100635.00;;;;2048036;28;20590;-52
2021/06/03 03:16:51;;;;;;;5.90;5.40;;;;;23.30;100636.00;;;;2054938;28;20245;-53
2021/06/03 03:17:51;;;;;;;5.22;4.82;;;;;23.30;100633.00;;;;2055043;28;20231;-52
2021/06/03 03:18:52;;;;;;;6.03;5.53;;;;;23.30;100634.00;;;;2048625;28;20337;-54
2021/06/03 03:19:52;;;;;;;5.73;5.33;;;;;23.30;100643.00;;;;2047061;28;21320;-54
2021/06/03 03:20:52;;;;;;;5.57;5.17;;;;;23.30;100639.00;;;;2045209;29;20655;-55
2021/06/03 03:21:53;;;;;;;6.13;5.60;;;;;23.30;100636.00;;;;2042268;29;20251;-55
2021/06/03 03:22:53;;;;;;;5.50;5.10;;;;;23.30;100639.00;;;;2046697;29;20223;-55
2021/06/03 03:23:54;;;;;;;5.83;5.33;;;;;23.30;100635.00;;;;2054470;28;20228;-54
2021/06/03 03:24:54;;;;;;;5.67;5.17;;;;;23.30;100637.00;;;;2047071;28;20220;-55
2021/06/03 03:25:54;;;;;;;5.80;5.30;;;;;23.30;100645.00;;;;2047695;28;20299;-55
2021/06/03 03:26:55;;;;;;;6.10;5.60;;;;;23.30;100642.00;;;;2054071;28;20224;-55
2021/06/03 03:27:55;;;;;;;5.60;5.20;;;;;23.30;100653.00;;;;2053009;28;20609;-55
2021/06/03 03:28:55;;;;;;;6.60;6.00;;;;;23.30;100650.00;;;;2037655;29;20790;-58
2021/06/03 03:29:56;;;;;;;5.87;5.37;;;;;23.30;100639.00;;;;2040897;29;20225;-55
2021/06/03 03:30:56;;;;;;;6.00;5.50;;;;;23.30;100642.00;;;;2048093;28;20270;-55
2021/06/03 03:31:57;;;;;;;6.70;6.17;;;;;23.30;100647.00;;;;2049089;28;20227;-55
2021/06/03 03:32:57;;;;;;;6.20;5.70;;;;;23.30;100641.00;;;;2047924;28;20485;-56
2021/06/03 03:34:02;;;;;;;5.43;5.03;;;;;23.30;100649.00;;;;2046818;28;20287;-56
2021/06/03 03:35:04;;;;;;;6.10;5.60;;;;;23.30;100650.00;;;;2051411;28;20208;-55
2021/06/03 03:36:05;;;;;;;5.72;5.25;;;;;23.30;100650.00;;;;2054603;28;20216;-54
2021/06/03 03:37:06;;;;;;;5.80;5.35;;;;;23.30;100645.00;;;;2052634;28;20223;-53
2021/06/03 03:38:06;;;;;;;5.40;5.00;;;;;23.30;100647.00;;;;2046478;28;20216;-54
2021/06/03 03:39:07;;;;;;;5.90;5.40;;;;;23.30;100651.00;;;;2048917;28;20246;-55
2021/06/03 03:40:09;;;;;;;5.20;4.80;;;;;23.30;100655.00;;;;2041901;29;20272;-55
2021/06/03 03:41:09;;;;;;;5.53;5.13;;;;;23.30;100655.00;;;;2041909;28;20205;-52
2021/06/03 03:42:10;;;;;;;5.70;5.20;;;;;23.30;100650.00;;;;2050779;28;20330;-53
2021/06/03 03:43:10;;;;;;;5.80;5.30;;;;;23.30;100653.00;;;;2054330;28;20211;-52
2021/06/03 03:44:10;;;;;;;6.20;5.60;;;;;23.30;100658.00;;;;2054203;28;20686;-54
2021/06/03 03:45:12;;;;;;;5.83;5.33;;;;;23.30;100652.00;;;;2051594;28;20216;-53
2021/06/03 03:46:13;;;;;;;5.70;5.25;;;;;23.30;100655.00;;;;2054988;28;20229;-54
2021/06/03 03:47:13;;;;;;;5.73;5.23;;;;;23.30;100655.00;;;;2055019;28;20226;-54
2021/06/03 03:48:13;;;;;;;5.67;5.20;;;;;23.30;100655.00;;;;2054642;28;20307;-54
2021/06/03 03:49:14;;;;;;;5.50;5.10;;;;;23.30;100661.00;;;;2054520;28;20212;-55
2021/06/03 03:50:15;;;;;;;4.97;4.57;;;;;23.30;100658.00;;;;2054642;28;20211;-55
2021/06/03 03:51:15;;;;;;;5.45;4.95;;;;;23.30;100652.00;;;;2053567;28;20236;-55
2021/06/03 03:52:16;;;;;;;5.83;5.43;;;;;23.30;100653.00;;;;2054649;28;20220;-55
2021/06/03 03:53:16;;;;;;;6.10;5.63;;;;;23.30;100655.00;;;;2054318;28;20708;-53
2021/06/03 03:54:17;;;;;;;5.30;4.90;;;;;23.30;100651.00;;;;2046734;28;20578;-55
2021/06/03 03:55:18;;;;;;;5.82;5.43;;;;;23.30;100655.00;;;;2046478;28;20216;-55
2021/06/03 03:56:18;;;;;;;5.67;5.20;;;;;23.30;100656.00;;;;2050430;28;20234;-55
2021/06/03 03:57:19;;;;;;;5.97;5.47;;;;;23.30;100660.00;;;;2046863;28;21349;-53
2021/06/03 03:58:20;;;;;;;5.15;4.75;;;;;23.30;100666.00;;;;2045129;28;20230;-55
2021/06/03 03:59:20;;;;;;;5.60;5.20;;;;;23.30;100658.00;;;;2054063;28;20224;-55
2021/06/03 04:00:27;;;;;;;5.57;5.17;;;;;23.30;100667.00;;;;2048346;28;20287;-53
2021/06/03 04:01:30;;;;;;;5.32;4.93;;;;;23.30;100671.00;;;;2053745;28;20216;-54
2021/06/03 04:02:30;;;;;;;5.70;5.20;;;;;23.30;100662.00;;;;2050705;28;20625;-53
2021/06/03 04:03:31;;;;;;;5.70;5.20;;;;;23.30;100665.00;;;;2050331;28;20246;-52
2021/06/03 04:04:31;;;;;;;5.47;4.97;;;;;23.30;100658.00;;;;2046833;28;20884;-56
2021/06/03 04:05:31;;;;;;;6.23;5.63;;;;;23.30;100669.00;;;;2046141;28;20331;-54
2021/06/03 04:06:32;;;;;;;5.27;4.87;;;;;23.30;100662.00;;;;2045891;28;20235;-57
2021/06/03 04:07:32;;;;;;;5.13;4.73;;;;;23.30;100668.00;;;;2052429;28;20223;-54
2021/06/03 04:08:32;;;;;;;4.90;4.50;;;;;23.30;100669.00;;;;2047624;28;20276;-54
2021/06/03 04:09:33;;;;;;;6.00;5.50;;;;;23.30;100666.00;;;;2046209;28;20251;-53
2021/06/03 04:10:33;;;;;;;5.00;4.60;;;;;23.20;100659.00;;;;2049780;28;20231;-53
2021/06/03 04:11:34;;;;;;;5.63;5.13;;;;;23.20;100668.00;;;;2052376;28;20264;-52
2021/06/03 04:12:34;;;;;;;5.20;4.80;;;;;23.30;100675.00;;;;2050051;28;20212;-54
2021/06/03 04:13:35;;;;;;;5.33;4.93;;;;;23.30;100671.00;;;;2052203;28;20223;-54
2021/06/03 04:14:36;;;;;;;5.32;4.90;;;;;23.30;100677.00;;;;2046791;28;20224;-54
2021/06/03 04:15:36;;;;;;;5.50;5.03;;;;;23.30;100678.00;;;;2046719;29;20686;-55
2021/06/03 04:16:36;;;;;;;4.80;4.40;;;;;23.30;100677.00;;;;2050711;28;20727;-54
2021/06/03 04:17:37;;;;;;;5.43;5.03;;;;;23.30;100680.00;;;;2049080;28;20723;-55
2021/06/03 04:18:37;;;;;;;5.80;5.30;;;;;23.30;100688.00;;;;2052134;28;20770;-52
2021/06/03 04:19:38;;;;;;;5.57;5.07;;;;;23.30;100690.00;;;;2046614;28;20212;-54
2021/06/03 04:20:38;;;;;;;6.03;4.87;;;;;23.30;100688.00;;;;2046850;28;20208;-55
2021/06/03 04:21:39;;;;;;;5.07;4.67;;;;;23.30;100686.00;;;;2046147;28;20216;-55
2021/06/03 04:22:39;;;;;;;4.87;4.47;;;;;23.30;100686.00;;;;2050611;28;20215;-54
2021/06/03 04:23:39;;;;;;;4.90;4.50;;;;;23.30;100682.00;;;;2054565;28;21070;-52
2021/06/03 04:24:39;;;;;;;5.50;5.00;;;;;23.30;100684.00;;;;2049841;28;20606;-54
2021/06/03 04:25:40;;;;;;;5.33;4.93;;;;;23.30;100690.00;;;;2048089;28;20645;-55
2021/06/03 04:26:40;;;;;;;5.00;4.60;;;;;23.30;100688.00;;;;2054527;28;20595;-54
2021/06/03 04:27:41;;;;;;;5.13;4.73;;;;;23.30;100691.00;;;;2054503;28;20216;-54
2021/06/03 04:28:42;;;;;;;4.70;4.30;;;;;23.30;100688.00;;;;2054624;28;20211;-54
2021/06/03 04:29:42;;;;;;;5.67;5.07;;;;;23.30;100688.00;;;;2048278;28;20270;-54
2021/06/03 04:30:45;;;;;;;4.60;4.20;;;;;23.30;100692.00;;;;2046718;28;20228;-54
2021/06/03 04:31:45;;;;;;;4.80;4.40;;;;;23.30;100696.00;;;;2045954;28;20211;-53
2021/06/03 04:32:45;;;;;;;4.77;4.37;;;;;23.30;100691.00;;;;2054103;28;20219;-54
2021/06/03 04:33:46;;;;;;;5.40;5.00;;;;;23.30;100696.00;;;;2054624;28;20231;-54
2021/06/03 04:34:47;;;;;;;5.20;4.80;;;;;23.30;100691.00;;;;2054644;28;20728;-55
2021/06/03 04:35:47;;;;;;;4.80;4.40;;;;;23.30;100696.00;;;;2054728;28;20226;-55
2021/06/03 04:36:47;;;;;;;5.30;4.90;;;;;23.30;100694.00;;;;2054745;28;20215;-55
2021/06/03 04:37:48;;;;;;;5.53;5.10;;;;;23.30;100699.00;;;;2050894;28;20216;-53
2021/06/03 04:38:48;;;;;;;5.23;4.83;;;;;23.30;100695.00;;;;2052171;28;20224;-54
2021/06/03 04:39:49;;;;;;;5.20;4.80;;;;;23.30;100700.00;;;;2046527;28;20232;-54
2021/06/03 04:40:49;;;;;;;4.67;4.37;;;;;23.30;100695.00;;;;2050308;28;21095;-55
2021/06/03 04:41:49;;;;;;;4.93;4.53;;;;;23.30;100698.00;;;;2038905;29;20221;-51
2021/06/03 04:42:50;;;;;;;5.33;4.90;;;;;23.30;100706.00;;;;2046485;29;20272;-55
2021/06/03 04:43:50;;;;;;;5.37;4.97;;;;;23.20;100702.00;;;;2047924;28;20228;-54
2021/06/03 04:44:51;;;;;;;5.10;4.70;;;;;23.30;100692.00;;;;2049014;28;20224;-54
2021/06/03 04:45:51;;;;;;;4.90;4.50;;;;;23.30;100692.00;;;;2055187;28;20281;-52
2021/06/03 04:46:51;;;;;;;4.53;4.23;;;;;23.30;100690.00;;;;2051950;28;20219;-54
2021/06/03 04:47:52;;;;;;;5.17;4.77;;;;;23.30;100696.00;;;;2048272;28;20247;-53
2021/06/03 04:48:52;;;;;;;4.80;4.40;;;;;23.30;100697.00;;;;2048060;28;20997;-53
2021/06/03 04:49:52;;;;;;;4.70;4.40;;;;;23.30;100704.00;;;;2050113;28;20757;-54
2021/06/03 04:50:53;;;;;;;4.57;4.27;;;;;23.30;100695.00;;;;2056158;28;20802;-54
2021/06/03 04:51:53;;;;;;;4.97;4.57;;;;;23.30;100697.00;;;;2048408;28;20997;-54
2021/06/03 04:52:53;;;;;;;4.50;4.20;;;;;23.30;100704.00;;;;2048360;28;20223;-53
2021/06/03 04:53:54;;;;;;;4.47;4.17;;;;;23.30;100700.00;;;;2055469;28;20282;-53
2021/06/03 04:54:58;;;;;;;5.27;4.87;;;;;23.30;100694.00;;;;2055679;28;20328;-52
2021/06/03 04:55:59;;;;;;;4.72;4.40;;;;;23.20;100699.00;;;;2055946;28;20638;-55
2021/06/03 04:56:59;;;;;;;4.60;4.30;;;;;23.30;100708.00;;;;2056056;28;20223;-53
2021/06/03 04:57:59;;;;;;;5.30;4.80;;;;;23.30;100701.00;;;;2056111;28;20755;-55
2021/06/03 04:59:00;;;;;;;5.20;4.80;;;;;23.30;100707.00;;;;2055555;28;20747;-53
2021/06/03 05:00:00;;;;;;;4.80;4.40;;;;;23.30;100704.00;;;;2055646;28;20294;-52
2021/06/03 05:01:01;;;;;;;5.57;5.17;;;;;23.30;100706.00;;;;2054272;28;20415;-52
2021/06/03 05:02:01;;;;;;;5.27;4.87;;;;;23.30;100708.00;;;;2055259;28;20226;-55
2021/06/03 05:03:02;;;;;;;5.27;4.83;;;;;23.20;100711.00;;;;2055228;28;20220;-54
2021/06/03 05:04:02;;;;;;;4.40;4.00;;;;;23.30;100709.00;;;;2052209;28;20325;-55